Bushville, New York
Current Conditions -  °F | °C
As of 2:16 PM on Tuesday 21 Oct 2014 (Local Time) from KBUF Reporting Station
Light Rain Light Rain  
Wind Chill: 11°   Ceiling: 800
Heat Index: 11°   Visibility: 10mi
Dew Point:   Wind: 9mph
Humidity: 89%   Direction: 10°N
Pressure: 29.88"   Gusts: NA
Location:  42.9969°N, 78.2158°W
Report Text: KBUF 211816Z 01008KT 10SM -RA BKN008 BKN022 OVC029 11/09 A2988 RMK AO2 RAB15 PCPN VRY LGT P0000 T01060089
Loading
Personal Weather Stations






























Interactive Weather Map
Tropical Storm Tracking
New forecast layout! Learn more

10-Day Weather Forecast

Advertisements
Track Severe Weather on mobile